Hancock, Maryland
Current Conditions -  °F | °C
As of 8:53 AM on Friday 24 Oct 2014 (Local Time) from KMRB Reporting Station
Clear Clear  
Wind Chill: 12°   Ceiling: Unl
Heat Index: 12°   Visibility: 10mi
Dew Point:   Wind: 7mph
Humidity: 59%   Direction: 290°WNW
Pressure: 30.03"   Gusts: NA
Location:  39.7°N, 78.18°W
Report Text: KMRB 241253Z 29006KT 10SM CLR 12/04 A3003 RMK AO2 SLP168 T01220044
Loading
Personal Weather Stations






























Interactive Weather Map
Tropical Storm Tracking
New forecast layout! Learn more

10-Day Weather Forecast

Advertisements
Track Severe Weather on mobile